sensor_id;sensor_type;location;lat;lon;timestamp;P1;durP1;ratioP1;P2;durP2;ratioP2
76582;SDS011;65462;52.148;7.940;2023-03-11T00:00:14;4.70;;;3.03;;
76582;SDS011;65462;52.148;7.940;2023-03-11T00:02:43;4.53;;;2.90;;
76582;SDS011;65462;52.148;7.940;2023-03-11T00:05:11;5.50;;;2.70;;
76582;SDS011;65462;52.148;7.940;2023-03-11T00:07:41;6.33;;;2.80;;
76582;SDS011;65462;52.148;7.940;2023-03-11T00:10:07;3.37;;;2.60;;
76582;SDS011;65462;52.148;7.940;2023-03-11T00:12:37;4.23;;;2.87;;
76582;SDS011;65462;52.148;7.940;2023-03-11T00:15:02;5.73;;;3.00;;
76582;SDS011;65462;52.148;7.940;2023-03-11T00:17:27;4.53;;;2.77;;
76582;SDS011;65462;52.148;7.940;2023-03-11T00:19:53;4.20;;;2.30;;
76582;SDS011;65462;52.148;7.940;2023-03-11T00:22:18;5.27;;;2.50;;
76582;SDS011;65462;52.148;7.940;2023-03-11T00:24:43;6.03;;;2.70;;
76582;SDS011;65462;52.148;7.940;2023-03-11T00:27:08;5.07;;;2.80;;
76582;SDS011;65462;52.148;7.940;2023-03-11T00:29:34;5.57;;;2.60;;
76582;SDS011;65462;52.148;7.940;2023-03-11T00:31:59;5.90;;;2.60;;
76582;SDS011;65462;52.148;7.940;2023-03-11T00:34:24;5.97;;;2.90;;
76582;SDS011;65462;52.148;7.940;2023-03-11T00:36:49;10.43;;;2.80;;
76582;SDS011;65462;52.148;7.940;2023-03-11T00:39:15;4.57;;;2.50;;
76582;SDS011;65462;52.148;7.940;2023-03-11T00:41:40;4.90;;;2.83;;
76582;SDS011;65462;52.148;7.940;2023-03-11T00:44:05;7.57;;;3.10;;
76582;SDS011;65462;52.148;7.940;2023-03-11T00:46:30;5.73;;;3.00;;
76582;SDS011;65462;52.148;7.940;2023-03-11T00:48:56;9.33;;;3.37;;
76582;SDS011;65462;52.148;7.940;2023-03-11T00:51:21;4.37;;;3.30;;
76582;SDS011;65462;52.148;7.940;2023-03-11T00:53:47;6.70;;;3.43;;
76582;SDS011;65462;52.148;7.940;2023-03-11T00:56:13;5.93;;;3.30;;
76582;SDS011;65462;52.148;7.940;2023-03-11T00:58:40;5.53;;;3.20;;
76582;SDS011;65462;52.148;7.940;2023-03-11T01:01:07;7.00;;;3.70;;
76582;SDS011;65462;52.148;7.940;2023-03-11T01:03:38;7.00;;;3.63;;
76582;SDS011;65462;52.148;7.940;2023-03-11T01:06:06;6.23;;;3.17;;
76582;SDS011;65462;52.148;7.940;2023-03-11T01:08:31;5.23;;;2.93;;
76582;SDS011;65462;52.148;7.940;2023-03-11T01:10:57;4.93;;;2.73;;
76582;SDS011;65462;52.148;7.940;2023-03-11T01:13:23;6.70;;;2.90;;
76582;SDS011;65462;52.148;7.940;2023-03-11T01:15:49;3.57;;;2.73;;
76582;SDS011;65462;52.148;7.940;2023-03-11T01:18:14;5.20;;;2.83;;
76582;SDS011;65462;52.148;7.940;2023-03-11T01:20:40;4.93;;;2.73;;
76582;SDS011;65462;52.148;7.940;2023-03-11T01:23:06;6.00;;;3.20;;
76582;SDS011;65462;52.148;7.940;2023-03-11T01:25:32;5.30;;;2.83;;
76582;SDS011;65462;52.148;7.940;2023-03-11T01:27:57;4.90;;;3.30;;
76582;SDS011;65462;52.148;7.940;2023-03-11T01:30:23;4.93;;;2.93;;
76582;SDS011;65462;52.148;7.940;2023-03-11T01:32:50;6.67;;;2.90;;
76582;SDS011;65462;52.148;7.940;2023-03-11T01:35:17;5.33;;;2.73;;
76582;SDS011;65462;52.148;7.940;2023-03-11T01:37:44;5.33;;;2.80;;
76582;SDS011;65462;52.148;7.940;2023-03-11T01:40:13;3.23;;;2.23;;
76582;SDS011;65462;52.148;7.940;2023-03-11T01:42:51;4.10;;;2.37;;
76582;SDS011;65462;52.148;7.940;2023-03-11T01:45:25;2.93;;;2.07;;
76582;SDS011;65462;52.148;7.940;2023-03-11T01:47:53;2.93;;;2.20;;
76582;SDS011;65462;52.148;7.940;2023-03-11T01:50:19;4.63;;;2.30;;
76582;SDS011;65462;52.148;7.940;2023-03-11T01:52:44;5.87;;;2.77;;
76582;SDS011;65462;52.148;7.940;2023-03-11T01:55:11;4.40;;;2.63;;
76582;SDS011;65462;52.148;7.940;2023-03-11T01:57:39;4.60;;;2.37;;
76582;SDS011;65462;52.148;7.940;2023-03-11T02:00:08;5.03;;;2.23;;
76582;SDS011;65462;52.148;7.940;2023-03-11T02:02:42;5.87;;;2.80;;
76582;SDS011;65462;52.148;7.940;2023-03-11T02:05:13;8.63;;;3.20;;
76582;SDS011;65462;52.148;7.940;2023-03-11T02:07:38;3.70;;;2.60;;
76582;SDS011;65462;52.148;7.940;2023-03-11T02:10:04;4.17;;;2.63;;
76582;SDS011;65462;52.148;7.940;2023-03-11T02:12:32;5.33;;;2.70;;
76582;SDS011;65462;52.148;7.940;2023-03-11T02:14:59;4.53;;;2.93;;
76582;SDS011;65462;52.148;7.940;2023-03-11T02:17:25;4.23;;;2.50;;
76582;SDS011;65462;52.148;7.940;2023-03-11T02:22:23;5.03;;;2.87;;
76582;SDS011;65462;52.148;7.940;2023-03-11T02:27:48;3.73;;;2.20;;
76582;SDS011;65462;52.148;7.940;2023-03-11T02:30:17;6.17;;;2.73;;
76582;SDS011;65462;52.148;7.940;2023-03-11T02:32:44;4.83;;;2.70;;
76582;SDS011;65462;52.148;7.940;2023-03-11T02:35:14;3.50;;;2.30;;
76582;SDS011;65462;52.148;7.940;2023-03-11T02:37:47;5.10;;;1.83;;
76582;SDS011;65462;52.148;7.940;2023-03-11T02:42:52;4.72;;;2.13;;
76582;SDS011;65462;52.148;7.940;2023-03-11T02:45:20;3.17;;;1.97;;
76582;SDS011;65462;52.148;7.940;2023-03-11T02:47:47;2.83;;;2.20;;
76582;SDS011;65462;52.148;7.940;2023-03-11T02:50:14;4.70;;;2.33;;
76582;SDS011;65462;52.148;7.940;2023-03-11T02:52:40;3.83;;;1.87;;
76582;SDS011;65462;52.148;7.940;2023-03-11T02:55:06;6.23;;;2.27;;
76582;SDS011;65462;52.148;7.940;2023-03-11T02:57:32;6.77;;;2.40;;
76582;SDS011;65462;52.148;7.940;2023-03-11T02:59:58;3.30;;;2.00;;
76582;SDS011;65462;52.148;7.940;2023-03-11T03:02:24;4.73;;;2.30;;
76582;SDS011;65462;52.148;7.940;2023-03-11T03:04:49;6.07;;;2.20;;
76582;SDS011;65462;52.148;7.940;2023-03-11T03:07:14;6.93;;;2.43;;
76582;SDS011;65462;52.148;7.940;2023-03-11T03:09:40;3.13;;;1.83;;
76582;SDS011;65462;52.148;7.940;2023-03-11T03:12:05;5.50;;;2.20;;
76582;SDS011;65462;52.148;7.940;2023-03-11T03:14:31;3.10;;;1.90;;
76582;SDS011;65462;52.148;7.940;2023-03-11T03:16:56;3.40;;;1.90;;
76582;SDS011;65462;52.148;7.940;2023-03-11T03:19:22;2.77;;;1.70;;
76582;SDS011;65462;52.148;7.940;2023-03-11T03:21:47;5.80;;;1.80;;
76582;SDS011;65462;52.148;7.940;2023-03-11T03:24:13;8.67;;;1.77;;
76582;SDS011;65462;52.148;7.940;2023-03-11T03:26:39;4.07;;;1.60;;
76582;SDS011;65462;52.148;7.940;2023-03-11T03:29:04;5.60;;;1.50;;
76582;SDS011;65462;52.148;7.940;2023-03-11T03:31:30;6.53;;;1.70;;
76582;SDS011;65462;52.148;7.940;2023-03-11T03:33:56;1.87;;;1.40;;
76582;SDS011;65462;52.148;7.940;2023-03-11T03:36:21;4.00;;;1.50;;
76582;SDS011;65462;52.148;7.940;2023-03-11T03:38:46;4.37;;;1.63;;
76582;SDS011;65462;52.148;7.940;2023-03-11T03:41:12;5.17;;;1.57;;
76582;SDS011;65462;52.148;7.940;2023-03-11T03:43:39;3.17;;;1.40;;
76582;SDS011;65462;52.148;7.940;2023-03-11T03:46:05;4.17;;;1.30;;
76582;SDS011;65462;52.148;7.940;2023-03-11T03:48:30;4.37;;;1.50;;
76582;SDS011;65462;52.148;7.940;2023-03-11T03:50:56;4.40;;;1.57;;
76582;SDS011;65462;52.148;7.940;2023-03-11T03:53:26;3.27;;;1.73;;
76582;SDS011;65462;52.148;7.940;2023-03-11T03:55:52;2.63;;;1.43;;
76582;SDS011;65462;52.148;7.940;2023-03-11T03:58:18;2.87;;;1.40;;
76582;SDS011;65462;52.148;7.940;2023-03-11T04:00:44;5.53;;;1.60;;
76582;SDS011;65462;52.148;7.940;2023-03-11T04:03:09;5.87;;;1.40;;
76582;SDS011;65462;52.148;7.940;2023-03-11T04:05:34;4.50;;;1.40;;
76582;SDS011;65462;52.148;7.940;2023-03-11T04:08:00;3.27;;;1.43;;
76582;SDS011;65462;52.148;7.940;2023-03-11T04:10:26;5.90;;;1.30;;
76582;SDS011;65462;52.148;7.940;2023-03-11T04:12:51;4.90;;;1.37;;
76582;SDS011;65462;52.148;7.940;2023-03-11T04:15:17;5.20;;;1.20;;
76582;SDS011;65462;52.148;7.940;2023-03-11T04:17:42;3.33;;;1.40;;
76582;SDS011;65462;52.148;7.940;2023-03-11T04:20:08;4.63;;;1.27;;
76582;SDS011;65462;52.148;7.940;2023-03-11T04:22:34;3.90;;;1.30;;
76582;SDS011;65462;52.148;7.940;2023-03-11T04:25:00;2.57;;;1.33;;
76582;SDS011;65462;52.148;7.940;2023-03-11T04:27:26;2.40;;;1.33;;
76582;SDS011;65462;52.148;7.940;2023-03-11T04:29:51;2.73;;;1.07;;
76582;SDS011;65462;52.148;7.940;2023-03-11T04:32:16;5.87;;;1.57;;
76582;SDS011;65462;52.148;7.940;2023-03-11T04:34:41;3.83;;;1.27;;
76582;SDS011;65462;52.148;7.940;2023-03-11T04:37:07;4.67;;;1.27;;
76582;SDS011;65462;52.148;7.940;2023-03-11T04:39:32;5.23;;;1.47;;
76582;SDS011;65462;52.148;7.940;2023-03-11T04:41:58;5.20;;;1.53;;
76582;SDS011;65462;52.148;7.940;2023-03-11T04:44:23;5.40;;;1.37;;
76582;SDS011;65462;52.148;7.940;2023-03-11T04:46:48;3.10;;;1.00;;
76582;SDS011;65462;52.148;7.940;2023-03-11T04:49:13;3.40;;;1.43;;
76582;SDS011;65462;52.148;7.940;2023-03-11T04:51:39;5.23;;;1.57;;
76582;SDS011;65462;52.148;7.940;2023-03-11T04:54:04;6.50;;;2.20;;
76582;SDS011;65462;52.148;7.940;2023-03-11T04:56:29;4.97;;;1.67;;
76582;SDS011;65462;52.148;7.940;2023-03-11T04:58:55;5.60;;;1.40;;
76582;SDS011;65462;52.148;7.940;2023-03-11T05:01:20;5.13;;;1.40;;
76582;SDS011;65462;52.148;7.940;2023-03-11T05:03:45;4.80;;;1.40;;
76582;SDS011;65462;52.148;7.940;2023-03-11T05:06:11;4.57;;;1.27;;
76582;SDS011;65462;52.148;7.940;2023-03-11T05:08:36;6.00;;;1.47;;
76582;SDS011;65462;52.148;7.940;2023-03-11T05:11:01;3.50;;;1.70;;
76582;SDS011;65462;52.148;7.940;2023-03-11T05:13:26;3.27;;;1.50;;
76582;SDS011;65462;52.148;7.940;2023-03-11T05:15:52;5.93;;;1.47;;
76582;SDS011;65462;52.148;7.940;2023-03-11T05:18:17;4.03;;;1.33;;
76582;SDS011;65462;52.148;7.940;2023-03-11T05:20:42;5.30;;;1.57;;
76582;SDS011;65462;52.148;7.940;2023-03-11T05:23:08;5.27;;;1.47;;
76582;SDS011;65462;52.148;7.940;2023-03-11T05:25:33;5.07;;;1.60;;
76582;SDS011;65462;52.148;7.940;2023-03-11T05:27:59;4.93;;;1.90;;
76582;SDS011;65462;52.148;7.940;2023-03-11T05:30:24;4.83;;;1.67;;
76582;SDS011;65462;52.148;7.940;2023-03-11T05:32:50;4.47;;;2.17;;
76582;SDS011;65462;52.148;7.940;2023-03-11T05:35:15;4.90;;;2.10;;
76582;SDS011;65462;52.148;7.940;2023-03-11T05:37:41;7.57;;;2.63;;
76582;SDS011;65462;52.148;7.940;2023-03-11T05:40:06;6.50;;;2.00;;
76582;SDS011;65462;52.148;7.940;2023-03-11T05:42:34;4.90;;;2.03;;
76582;SDS011;65462;52.148;7.940;2023-03-11T05:44:59;4.43;;;1.97;;
76582;SDS011;65462;52.148;7.940;2023-03-11T05:47:24;5.40;;;2.20;;
76582;SDS011;65462;52.148;7.940;2023-03-11T05:49:50;4.90;;;2.40;;
76582;SDS011;65462;52.148;7.940;2023-03-11T05:52:15;7.57;;;2.40;;
76582;SDS011;65462;52.148;7.940;2023-03-11T05:54:41;6.30;;;2.20;;
76582;SDS011;65462;52.148;7.940;2023-03-11T05:57:06;4.33;;;1.80;;
76582;SDS011;65462;52.148;7.940;2023-03-11T05:59:31;6.33;;;2.20;;
76582;SDS011;65462;52.148;7.940;2023-03-11T06:01:59;5.07;;;1.93;;
76582;SDS011;65462;52.148;7.940;2023-03-11T06:04:24;6.20;;;1.70;;
76582;SDS011;65462;52.148;7.940;2023-03-11T06:06:50;6.90;;;2.10;;
76582;SDS011;65462;52.148;7.940;2023-03-11T06:09:15;4.53;;;1.40;;
76582;SDS011;65462;52.148;7.940;2023-03-11T06:11:41;5.73;;;1.63;;
76582;SDS011;65462;52.148;7.940;2023-03-11T06:14:06;5.10;;;1.77;;
76582;SDS011;65462;52.148;7.940;2023-03-11T06:16:31;3.73;;;1.57;;
76582;SDS011;65462;52.148;7.940;2023-03-11T06:18:57;2.83;;;1.70;;
76582;SDS011;65462;52.148;7.940;2023-03-11T06:21:24;2.80;;;1.40;;
76582;SDS011;65462;52.148;7.940;2023-03-11T06:23:51;5.77;;;1.80;;
76582;SDS011;65462;52.148;7.940;2023-03-11T06:26:17;4.57;;;1.60;;
76582;SDS011;65462;52.148;7.940;2023-03-11T06:28:46;3.53;;;1.70;;
76582;SDS011;65462;52.148;7.940;2023-03-11T06:33:43;3.63;;;1.60;;
76582;SDS011;65462;52.148;7.940;2023-03-11T06:36:09;6.37;;;1.60;;
76582;SDS011;65462;52.148;7.940;2023-03-11T06:38:36;5.83;;;1.67;;
76582;SDS011;65462;52.148;7.940;2023-03-11T06:41:02;4.83;;;1.90;;
76582;SDS011;65462;52.148;7.940;2023-03-11T06:43:29;6.57;;;1.90;;
76582;SDS011;65462;52.148;7.940;2023-03-11T06:45:55;4.03;;;1.40;;
76582;SDS011;65462;52.148;7.940;2023-03-11T06:48:21;4.30;;;1.50;;
76582;SDS011;65462;52.148;7.940;2023-03-11T06:50:56;3.10;;;1.43;;
76582;SDS011;65462;52.148;7.940;2023-03-11T06:53:23;5.27;;;1.63;;
76582;SDS011;65462;52.148;7.940;2023-03-11T06:58:28;5.47;;;1.60;;
76582;SDS011;65462;52.148;7.940;2023-03-11T07:00:54;5.47;;;1.47;;
76582;SDS011;65462;52.148;7.940;2023-03-11T07:03:19;5.83;;;1.50;;
76582;SDS011;65462;52.148;7.940;2023-03-11T07:05:44;6.60;;;1.70;;
76582;SDS011;65462;52.148;7.940;2023-03-11T07:08:10;3.30;;;1.50;;
76582;SDS011;65462;52.148;7.940;2023-03-11T07:10:35;4.83;;;1.47;;
76582;SDS011;65462;52.148;7.940;2023-03-11T07:13:00;5.30;;;1.40;;
76582;SDS011;65462;52.148;7.940;2023-03-11T07:15:26;4.37;;;1.43;;
76582;SDS011;65462;52.148;7.940;2023-03-11T07:17:51;4.60;;;1.50;;
76582;SDS011;65462;52.148;7.940;2023-03-11T07:20:16;2.70;;;1.23;;
76582;SDS011;65462;52.148;7.940;2023-03-11T07:22:42;2.90;;;1.20;;
76582;SDS011;65462;52.148;7.940;2023-03-11T07:25:07;6.50;;;1.43;;
76582;SDS011;65462;52.148;7.940;2023-03-11T07:27:33;2.27;;;1.23;;
76582;SDS011;65462;52.148;7.940;2023-03-11T07:29:59;3.73;;;1.40;;
76582;SDS011;65462;52.148;7.940;2023-03-11T07:32:25;5.30;;;1.40;;
76582;SDS011;65462;52.148;7.940;2023-03-11T07:34:50;3.43;;;1.57;;
76582;SDS011;65462;52.148;7.940;2023-03-11T07:37:15;5.63;;;1.63;;
76582;SDS011;65462;52.148;7.940;2023-03-11T07:39:41;4.67;;;1.50;;
76582;SDS011;65462;52.148;7.940;2023-03-11T07:42:06;4.30;;;1.47;;
76582;SDS011;65462;52.148;7.940;2023-03-11T07:44:31;4.07;;;1.70;;
76582;SDS011;65462;52.148;7.940;2023-03-11T07:46:57;5.53;;;1.90;;
76582;SDS011;65462;52.148;7.940;2023-03-11T07:49:22;3.77;;;2.17;;
76582;SDS011;65462;52.148;7.940;2023-03-11T07:51:47;4.73;;;2.20;;
76582;SDS011;65462;52.148;7.940;2023-03-11T07:54:12;4.40;;;2.00;;
76582;SDS011;65462;52.148;7.940;2023-03-11T07:56:38;5.90;;;1.97;;
76582;SDS011;65462;52.148;7.940;2023-03-11T07:59:03;4.23;;;2.00;;
76582;SDS011;65462;52.148;7.940;2023-03-11T08:01:29;4.97;;;1.63;;
76582;SDS011;65462;52.148;7.940;2023-03-11T08:04:00;5.57;;;1.50;;
76582;SDS011;65462;52.148;7.940;2023-03-11T08:06:27;4.77;;;1.90;;
76582;SDS011;65462;52.148;7.940;2023-03-11T08:08:55;3.83;;;1.57;;
76582;SDS011;65462;52.148;7.940;2023-03-11T08:11:21;2.73;;;1.50;;
76582;SDS011;65462;52.148;7.940;2023-03-11T08:13:47;7.23;;;1.67;;
76582;SDS011;65462;52.148;7.940;2023-03-11T08:16:13;4.70;;;1.40;;
76582;SDS011;65462;52.148;7.940;2023-03-11T08:18:41;3.53;;;1.60;;
76582;SDS011;65462;52.148;7.940;2023-03-11T08:21:08;5.90;;;1.73;;
76582;SDS011;65462;52.148;7.940;2023-03-11T08:23:36;5.07;;;1.57;;
76582;SDS011;65462;52.148;7.940;2023-03-11T08:26:02;3.20;;;1.27;;
76582;SDS011;65462;52.148;7.940;2023-03-11T08:28:31;3.93;;;1.50;;
76582;SDS011;65462;52.148;7.940;2023-03-11T08:30:57;5.13;;;1.77;;
76582;SDS011;65462;52.148;7.940;2023-03-11T08:33:22;2.60;;;1.50;;
76582;SDS011;65462;52.148;7.940;2023-03-11T08:35:48;3.03;;;1.37;;
76582;SDS011;65462;52.148;7.940;2023-03-11T08:38:13;3.00;;;1.00;;
76582;SDS011;65462;52.148;7.940;2023-03-11T08:40:38;3.70;;;1.50;;
76582;SDS011;65462;52.148;7.940;2023-03-11T08:43:03;6.50;;;1.80;;
76582;SDS011;65462;52.148;7.940;2023-03-11T08:45:29;4.97;;;1.30;;
76582;SDS011;65462;52.148;7.940;2023-03-11T08:47:55;5.83;;;1.30;;
76582;SDS011;65462;52.148;7.940;2023-03-11T08:50:20;3.27;;;1.20;;
76582;SDS011;65462;52.148;7.940;2023-03-11T08:52:45;3.33;;;1.40;;
76582;SDS011;65462;52.148;7.940;2023-03-11T08:55:14;5.90;;;1.30;;
76582;SDS011;65462;52.148;7.940;2023-03-11T08:57:42;3.83;;;1.40;;
76582;SDS011;65462;52.148;7.940;2023-03-11T09:00:08;5.20;;;1.30;;
76582;SDS011;65462;52.148;7.940;2023-03-11T09:02:35;3.30;;;1.37;;
76582;SDS011;65462;52.148;7.940;2023-03-11T09:05:00;5.10;;;1.37;;
76582;SDS011;65462;52.148;7.940;2023-03-11T09:07:25;4.70;;;1.40;;
76582;SDS011;65462;52.148;7.940;2023-03-11T09:09:51;2.00;;;1.20;;
76582;SDS011;65462;52.148;7.940;2023-03-11T09:12:16;2.67;;;1.40;;
76582;SDS011;65462;52.148;7.940;2023-03-11T09:14:41;3.27;;;1.53;;
76582;SDS011;65462;52.148;7.940;2023-03-11T09:17:08;3.00;;;1.40;;
76582;SDS011;65462;52.148;7.940;2023-03-11T09:19:34;4.97;;;1.60;;
76582;SDS011;65462;52.148;7.940;2023-03-11T09:22:00;521.77;;;294.17;;
76582;SDS011;65462;52.148;7.940;2023-03-11T09:24:26;1999.90;;;903.83;;
76582;SDS011;65462;52.148;7.940;2023-03-11T09:26:52;1999.90;;;968.20;;
76582;SDS011;65462;52.148;7.940;2023-03-11T09:29:17;1999.90;;;999.90;;
76582;SDS011;65462;52.148;7.940;2023-03-11T09:31:42;1999.90;;;999.90;;
76582;SDS011;65462;52.148;7.940;2023-03-11T09:34:09;1999.90;;;999.90;;
76582;SDS011;65462;52.148;7.940;2023-03-11T09:36:36;1999.90;;;999.90;;
76582;SDS011;65462;52.148;7.940;2023-03-11T09:39:01;1999.90;;;999.90;;
76582;SDS011;65462;52.148;7.940;2023-03-11T09:49:16;1999.90;;;913.17;;
76582;SDS011;65462;52.148;7.940;2023-03-11T09:52:08;1428.27;;;693.03;;
76582;SDS011;65462;52.148;7.940;2023-03-11T09:54:41;893.57;;;443.83;;
76582;SDS011;65462;52.148;7.940;2023-03-11T09:57:16;594.42;;;296.42;;
76582;SDS011;65462;52.148;7.940;2023-03-11T09:59:45;355.20;;;161.57;;
76582;SDS011;65462;52.148;7.940;2023-03-11T10:02:16;204.27;;;90.43;;
76582;SDS011;65462;52.148;7.940;2023-03-11T10:04:55;166.30;;;104.27;;
76582;SDS011;65462;52.148;7.940;2023-03-11T10:07:26;205.10;;;183.27;;
76582;SDS011;65462;52.148;7.940;2023-03-11T10:09:56;87.97;;;68.67;;
76582;SDS011;65462;52.148;7.940;2023-03-11T10:25:46;53.70;;;47.27;;
76582;SDS011;65462;52.148;7.940;2023-03-11T10:28:19;31.00;;;26.10;;
76582;SDS011;65462;52.148;7.940;2023-03-11T10:31:00;27.13;;;23.70;;
76582;SDS011;65462;52.148;7.940;2023-03-11T10:33:45;17.00;;;13.40;;
76582;SDS011;65462;52.148;7.940;2023-03-11T10:36:39;23.20;;;20.80;;
76582;SDS011;65462;52.148;7.940;2023-03-11T10:39:13;14.73;;;12.57;;
76582;SDS011;65462;52.148;7.940;2023-03-11T10:44:27;11.60;;;7.40;;
76582;SDS011;65462;52.148;7.940;2023-03-11T10:46:56;7.60;;;5.83;;
76582;SDS011;65462;52.148;7.940;2023-03-11T10:49:21;8.60;;;6.00;;
76582;SDS011;65462;52.148;7.940;2023-03-11T10:51:47;7.53;;;4.93;;
76582;SDS011;65462;52.148;7.940;2023-03-11T10:54:35;13.87;;;4.60;;
76582;SDS011;65462;52.148;7.940;2023-03-11T10:59:51;11.50;;;7.30;;
76582;SDS011;65462;52.148;7.940;2023-03-11T11:02:31;12.10;;;10.50;;
76582;SDS011;65462;52.148;7.940;2023-03-11T11:07:33;20.83;;;18.88;;
76582;SDS011;65462;52.148;7.940;2023-03-11T11:10:12;10.30;;;8.03;;
76582;SDS011;65462;52.148;7.940;2023-03-11T11:12:53;5.23;;;4.00;;
76582;SDS011;65462;52.148;7.940;2023-03-11T11:18:03;7.17;;;5.83;;
76582;SDS011;65462;52.148;7.940;2023-03-11T11:20:31;15.20;;;13.53;;
76582;SDS011;65462;52.148;7.940;2023-03-11T11:22:59;19.13;;;17.17;;
76582;SDS011;65462;52.148;7.940;2023-03-11T11:25:35;15.97;;;13.90;;
76582;SDS011;65462;52.148;7.940;2023-03-11T11:28:11;13.73;;;11.67;;
76582;SDS011;65462;52.148;7.940;2023-03-11T11:30:56;18.10;;;16.20;;
76582;SDS011;65462;52.148;7.940;2023-03-11T11:33:27;13.57;;;10.87;;
76582;SDS011;65462;52.148;7.940;2023-03-11T11:36:16;8.17;;;5.87;;
76582;SDS011;65462;52.148;7.940;2023-03-11T11:38:42;8.27;;;4.60;;
76582;SDS011;65462;52.148;7.940;2023-03-11T11:41:08;6.73;;;2.50;;
76582;SDS011;65462;52.148;7.940;2023-03-11T11:46:58;4.87;;;2.27;;
76582;SDS011;65462;52.148;7.940;2023-03-11T11:51:40;6.37;;;2.30;;
76582;SDS011;65462;52.148;7.940;2023-03-11T11:54:13;7.32;;;1.63;;
76582;SDS011;65462;52.148;7.940;2023-03-11T11:56:42;5.43;;;1.50;;
76582;SDS011;65462;52.148;7.940;2023-03-11T11:59:17;4.17;;;1.10;;
76582;SDS011;65462;52.148;7.940;2023-03-11T12:01:57;3.27;;;1.00;;
76582;SDS011;65462;52.148;7.940;2023-03-11T12:07:26;3.03;;;0.80;;
76582;SDS011;65462;52.148;7.940;2023-03-11T12:10:09;4.60;;;0.97;;
76582;SDS011;65462;52.148;7.940;2023-03-11T12:15:57;3.53;;;1.40;;
76582;SDS011;65462;52.148;7.940;2023-03-11T12:21:04;1.42;;;1.00;;
76582;SDS011;65462;52.148;7.940;2023-03-11T12:26:41;2.93;;;1.40;;
76582;SDS011;65462;52.148;7.940;2023-03-11T12:29:13;2.50;;;0.90;;
76582;SDS011;65462;52.148;7.940;2023-03-11T12:31:46;3.37;;;1.00;;
76582;SDS011;65462;52.148;7.940;2023-03-11T12:34:13;3.73;;;1.10;;
76582;SDS011;65462;52.148;7.940;2023-03-11T12:36:41;4.83;;;1.20;;
76582;SDS011;65462;52.148;7.940;2023-03-11T12:39:22;11.00;;;4.67;;
76582;SDS011;65462;52.148;7.940;2023-03-11T12:44:41;733.83;;;465.23;;
76582;SDS011;65462;52.148;7.940;2023-03-11T12:49:32;1999.90;;;998.87;;
76582;SDS011;65462;52.148;7.940;2023-03-11T12:52:00;1999.90;;;999.90;;
76582;SDS011;65462;52.148;7.940;2023-03-11T12:54:35;1999.90;;;999.90;;
76582;SDS011;65462;52.148;7.940;2023-03-11T12:57:11;1999.90;;;999.90;;
76582;SDS011;65462;52.148;7.940;2023-03-11T13:07:58;1999.90;;;999.90;;
76582;SDS011;65462;52.148;7.940;2023-03-11T13:12:52;825.73;;;536.70;;
76582;SDS011;65462;52.148;7.940;2023-03-11T13:23:08;45.43;;;36.03;;
76582;SDS011;65462;52.148;7.940;2023-03-11T13:34:15;13.40;;;7.47;;
76582;SDS011;65462;52.148;7.940;2023-03-11T13:39:17;1183.60;;;777.30;;
76582;SDS011;65462;52.148;7.940;2023-03-11T13:41:52;756.37;;;505.60;;
76582;SDS011;65462;52.148;7.940;2023-03-11T13:46:43;308.70;;;188.27;;
76582;SDS011;65462;52.148;7.940;2023-03-11T13:52:07;110.10;;;61.87;;
76582;SDS011;65462;52.148;7.940;2023-03-11T13:54:54;82.57;;;53.87;;
76582;SDS011;65462;52.148;7.940;2023-03-11T13:57:29;95.53;;;71.23;;
76582;SDS011;65462;52.148;7.940;2023-03-11T14:00:03;123.87;;;94.43;;
76582;SDS011;65462;52.148;7.940;2023-03-11T14:05:44;49.60;;;35.60;;
76582;SDS011;65462;52.148;7.940;2023-03-11T14:10:36;22.47;;;19.70;;
76582;SDS011;65462;52.148;7.940;2023-03-11T14:13:19;16.23;;;13.07;;
76582;SDS011;65462;52.148;7.940;2023-03-11T14:15:56;9.73;;;5.97;;
76582;SDS011;65462;52.148;7.940;2023-03-11T14:20:52;8.87;;;7.00;;
76582;SDS011;65462;52.148;7.940;2023-03-11T14:23:18;7.50;;;5.33;;
76582;SDS011;65462;52.148;7.940;2023-03-11T14:25:44;9.67;;;6.23;;
76582;SDS011;65462;52.148;7.940;2023-03-11T14:28:16;7.50;;;4.07;;
76582;SDS011;65462;52.148;7.940;2023-03-11T14:30:54;5.43;;;3.03;;
76582;SDS011;65462;52.148;7.940;2023-03-11T14:33:21;6.10;;;2.00;;
76582;SDS011;65462;52.148;7.940;2023-03-11T14:36:00;6.77;;;2.20;;
76582;SDS011;65462;52.148;7.940;2023-03-11T14:38:29;7.10;;;2.07;;
76582;SDS011;65462;52.148;7.940;2023-03-11T14:40:56;4.47;;;1.90;;
76582;SDS011;65462;52.148;7.940;2023-03-11T14:43:29;9.73;;;2.83;;
76582;SDS011;65462;52.148;7.940;2023-03-11T14:45:58;8.80;;;3.60;;
76582;SDS011;65462;52.148;7.940;2023-03-11T14:48:26;6.60;;;3.20;;
76582;SDS011;65462;52.148;7.940;2023-03-11T14:50:55;6.60;;;2.93;;
76582;SDS011;65462;52.148;7.940;2023-03-11T14:53:24;8.17;;;3.53;;
76582;SDS011;65462;52.148;7.940;2023-03-11T14:55:54;7.73;;;3.70;;
76582;SDS011;65462;52.148;7.940;2023-03-11T15:01:01;10.90;;;5.60;;
76582;SDS011;65462;52.148;7.940;2023-03-11T15:03:49;9.33;;;4.40;;
76582;SDS011;65462;52.148;7.940;2023-03-11T15:06:24;13.67;;;10.60;;
76582;SDS011;65462;52.148;7.940;2023-03-11T15:08:54;10.47;;;8.57;;
76582;SDS011;65462;52.148;7.940;2023-03-11T15:11:24;8.97;;;6.70;;
76582;SDS011;65462;52.148;7.940;2023-03-11T15:13:54;6.03;;;4.13;;
76582;SDS011;65462;52.148;7.940;2023-03-11T15:16:41;6.17;;;4.77;;
76582;SDS011;65462;52.148;7.940;2023-03-11T15:21:54;9.20;;;7.50;;
76582;SDS011;65462;52.148;7.940;2023-03-11T15:24:24;8.13;;;4.87;;
76582;SDS011;65462;52.148;7.940;2023-03-11T15:26:55;7.17;;;3.03;;
76582;SDS011;65462;52.148;7.940;2023-03-11T15:29:23;8.33;;;3.23;;
76582;SDS011;65462;52.148;7.940;2023-03-11T15:31:50;3.80;;;1.90;;
76582;SDS011;65462;52.148;7.940;2023-03-11T15:34:20;5.00;;;2.57;;
76582;SDS011;65462;52.148;7.940;2023-03-11T15:41:58;5.17;;;1.87;;
76582;SDS011;65462;52.148;7.940;2023-03-11T15:44:32;2.80;;;1.20;;
76582;SDS011;65462;52.148;7.940;2023-03-11T15:47:12;5.53;;;1.10;;
76582;SDS011;65462;52.148;7.940;2023-03-11T15:49:39;4.93;;;1.40;;
76582;SDS011;65462;52.148;7.940;2023-03-11T15:52:05;5.07;;;1.80;;
76582;SDS011;65462;52.148;7.940;2023-03-11T15:54:30;5.63;;;2.03;;
76582;SDS011;65462;52.148;7.940;2023-03-11T15:56:56;6.07;;;2.03;;
76582;SDS011;65462;52.148;7.940;2023-03-11T15:59:22;6.13;;;1.80;;
76582;SDS011;65462;52.148;7.940;2023-03-11T16:01:48;3.60;;;1.50;;
76582;SDS011;65462;52.148;7.940;2023-03-11T16:04:15;1.90;;;0.90;;
76582;SDS011;65462;52.148;7.940;2023-03-11T16:06:42;3.70;;;1.40;;
76582;SDS011;65462;52.148;7.940;2023-03-11T16:09:08;5.50;;;1.20;;
76582;SDS011;65462;52.148;7.940;2023-03-11T16:11:35;4.17;;;1.30;;
76582;SDS011;65462;52.148;7.940;2023-03-11T16:14:01;4.83;;;1.10;;
76582;SDS011;65462;52.148;7.940;2023-03-11T16:16:27;1.83;;;0.80;;
76582;SDS011;65462;52.148;7.940;2023-03-11T16:18:52;5.57;;;1.10;;
76582;SDS011;65462;52.148;7.940;2023-03-11T16:21:18;4.80;;;1.10;;
76582;SDS011;65462;52.148;7.940;2023-03-11T16:23:45;4.97;;;1.00;;
76582;SDS011;65462;52.148;7.940;2023-03-11T16:26:11;3.40;;;0.80;;
76582;SDS011;65462;52.148;7.940;2023-03-11T16:28:40;2.27;;;0.90;;
76582;SDS011;65462;52.148;7.940;2023-03-11T16:31:06;3.20;;;0.90;;
76582;SDS011;65462;52.148;7.940;2023-03-11T16:33:35;5.13;;;1.17;;
76582;SDS011;65462;52.148;7.940;2023-03-11T16:36:00;3.53;;;1.23;;
76582;SDS011;65462;52.148;7.940;2023-03-11T16:38:27;4.10;;;1.20;;
76582;SDS011;65462;52.148;7.940;2023-03-11T16:41:00;2.27;;;0.80;;
76582;SDS011;65462;52.148;7.940;2023-03-11T16:43:27;3.93;;;1.30;;
76582;SDS011;65462;52.148;7.940;2023-03-11T16:45:53;5.60;;;1.07;;